メインページ
METAR-TAF:

METAR-TAF

空港 :

レイキャヴィーク空港

レイキャヴィーク, アイスランド

緯度: 64-08N, 経度: 021-54W, 海抜: 54m

現時点の気象観測

当レポートは19分前の06:00(UTC)に作成
の風 17kt
気温 2°C
湿度 80%
気圧 961 hPa
視程10km以上
高度3300ftの雲はほとんどない
高度5500ftの雲は散在している
高度6900ftの千切れ雲あり

METAR: BIRK 200600Z 01017KT 9999 FEW033 SCT055 BKN069 02/M01 Q0961

時間: 06:19 (06:19 UTC)

予報

当レポートは1時間29分前の04:50(UTC)に作成
予報は20日の 06時(UTC)から 21日の 06時(UTC)まで有効
の風 17kt
視程10km以上
高度2700ftの雲は散在している
高度3800ftの千切れ雲あり
20日の 08時(UTC)から 20日の 16時(UTC)まで一時的に
の風 22kt、最大32ktの突風を伴う
20日の 19時(UTC)から 20日の 21時(UTC)まで徐々に
の風 12kt

TAF: BIRK 200450Z 2006/2106 36017KT 9999 SCT027 BKN038 TX02/2009Z TNM02/2102Z TEMPO 2008/2016 01022G32KT BECMG 2019/2021 08012KT

4,000以上の空港の気象観測と天気予報(METAR報とTAF報)

利用可能な観測所は地図上に黄色い丸と赤い丸で示す。

丸の上にカーソルを重ねると観測所名を参照できる。

次にクリックすると気象観測と天気予報を参照できる。

マップの切り替え:黒色「×」印の緑ボタンをクリックして拡大、「-」印の緑ボタンをクリックして縮小、緑色の三角印をクリックして隣りの地図に切り替え


METAR-TAF: